createdAt,value
2019-05-09T00:01:04.468Z,94.10
2019-05-09T00:03:33.585Z,94.10
2019-05-09T00:06:04.464Z,94.50
2019-05-09T00:08:33.505Z,94.70
2019-05-09T00:11:03.661Z,95.20
2019-05-09T00:13:34.166Z,95.00
2019-05-09T00:16:03.642Z,94.70
2019-05-09T00:18:33.657Z,94.90
2019-05-09T00:21:13.497Z,94.80
2019-05-09T00:23:43.750Z,94.80
2019-05-09T00:26:13.380Z,95.00
2019-05-09T00:28:44.522Z,95.10
2019-05-09T00:31:14.828Z,94.70
2019-05-09T00:33:47.961Z,95.00
2019-05-09T00:36:15.575Z,95.10
2019-05-09T00:38:45.820Z,95.00
2019-05-09T00:41:14.671Z,95.10
2019-05-09T00:43:44.939Z,94.90
2019-05-09T00:46:33.973Z,94.70
2019-05-09T00:49:14.052Z,94.90
2019-05-09T00:51:43.715Z,94.40
2019-05-09T00:54:13.496Z,94.70
2019-05-09T00:56:43.588Z,94.90
2019-05-09T00:59:13.528Z,95.10
2019-05-09T01:01:43.699Z,94.90
2019-05-09T01:04:13.595Z,94.50
2019-05-09T01:07:03.414Z,94.80
2019-05-09T01:09:33.377Z,94.40
2019-05-09T01:12:04.130Z,95.00
2019-05-09T01:14:33.965Z,95.00
2019-05-09T01:17:04.282Z,95.10
2019-05-09T01:19:33.878Z,95.10
2019-05-09T01:22:03.707Z,95.00
2019-05-09T01:24:33.761Z,95.00
2019-05-09T01:27:03.572Z,94.90
2019-05-09T01:29:33.936Z,94.80
2019-05-09T01:32:05.289Z,94.90
2019-05-09T01:34:35.680Z,94.90
2019-05-09T01:37:05.328Z,95.10
2019-05-09T01:39:35.542Z,94.80
2019-05-09T01:42:04.880Z,94.90
2019-05-09T01:44:33.771Z,94.70
2019-05-09T01:47:04.603Z,94.60
2019-05-09T01:49:34.626Z,94.40
2019-05-09T01:52:03.664Z,94.50
2019-05-09T01:54:54.015Z,94.00
2019-05-09T01:57:23.231Z,94.00
2019-05-09T01:59:53.685Z,93.90
2019-05-09T02:02:23.582Z,93.40
2019-05-09T02:04:53.346Z,93.10
2019-05-09T02:07:23.761Z,92.80
2019-05-09T02:09:53.986Z,92.80
2019-05-09T02:12:24.600Z,92.70
2019-05-09T02:14:59.736Z,92.60
2019-05-09T02:17:29.877Z,92.70
2019-05-09T02:19:58.618Z,93.30
2019-05-09T02:22:36.776Z,93.40
2019-05-09T02:25:10.303Z,93.20
2019-05-09T02:27:38.980Z,93.30
2019-05-09T02:30:10.076Z,93.30
2019-05-09T02:32:39.334Z,93.40
2019-05-09T02:35:08.920Z,93.30
2019-05-09T02:37:38.927Z,93.30
2019-05-09T02:40:10.196Z,93.30
2019-05-09T02:42:40.140Z,93.40
2019-05-09T02:45:10.033Z,93.60
2019-05-09T02:47:38.958Z,93.80
2019-05-09T02:50:30.099Z,93.80
2019-05-09T02:52:59.135Z,93.60
2019-05-09T02:55:28.877Z,93.80
2019-05-09T02:57:59.416Z,93.70
2019-05-09T03:00:29.867Z,93.90
2019-05-09T03:03:03.219Z,94.10
2019-05-09T03:05:32.080Z,93.90
2019-05-09T03:08:00.726Z,94.20
2019-05-09T03:10:29.716Z,94.50
2019-05-09T03:12:59.360Z,94.70
2019-05-09T03:15:29.419Z,94.20
2019-05-09T03:17:59.886Z,94.30
2019-05-09T03:20:30.481Z,94.60
2019-05-09T03:23:00.975Z,94.20
2019-05-09T03:25:29.589Z,94.00
2019-05-09T03:28:05.574Z,93.90
2019-05-09T03:30:41.685Z,94.00
2019-05-09T03:33:10.772Z,93.90
2019-05-09T03:35:39.878Z,93.90
2019-05-09T03:38:08.590Z,94.20
2019-05-09T03:40:39.348Z,94.10
2019-05-09T03:43:08.245Z,94.20
2019-05-09T03:45:39.078Z,94.00
2019-05-09T03:48:11.757Z,93.70
2019-05-09T03:50:40.896Z,93.30
2019-05-09T03:53:09.727Z,93.10
2019-05-09T03:55:38.577Z,92.60
2019-05-09T03:58:14.496Z,92.90
2019-05-09T04:00:43.395Z,93.30
2019-05-09T04:03:12.022Z,93.10
2019-05-09T04:05:54.437Z,92.80
2019-05-09T04:08:18.379Z,93.10
2019-05-09T04:10:50.270Z,93.20
2019-05-09T04:13:22.695Z,93.00
2019-05-09T04:15:51.444Z,92.80
2019-05-09T04:18:20.098Z,92.90
2019-05-09T04:20:48.843Z,93.40
2019-05-09T04:23:18.654Z,93.50
2019-05-09T04:25:49.439Z,93.30
2019-05-09T04:28:18.149Z,93.40
2019-05-09T04:30:47.814Z,93.40
2019-05-09T04:33:17.718Z,93.30
2019-05-09T04:35:47.591Z,93.10
2019-05-09T04:38:39.782Z,93.40
2019-05-09T04:41:07.438Z,93.40
2019-05-09T04:43:39.733Z,93.30
2019-05-09T04:46:12.778Z,93.00
2019-05-09T04:48:38.736Z,92.60
2019-05-09T04:51:08.180Z,92.50
2019-05-09T04:53:37.716Z,92.60
2019-05-09T04:56:24.048Z,92.70
2019-05-09T04:58:52.868Z,92.70
2019-05-09T05:01:28.249Z,93.00
2019-05-09T05:03:58.194Z,92.60
2019-05-09T05:06:28.115Z,92.50
2019-05-09T05:08:58.598Z,92.30
2019-05-09T05:11:27.920Z,92.20
2019-05-09T05:13:58.678Z,92.00
2019-05-09T05:16:27.667Z,91.70
2019-05-09T05:18:58.388Z,91.70
2019-05-09T05:21:28.448Z,91.50
2019-05-09T05:23:59.058Z,91.60
2019-05-09T05:26:29.229Z,91.70
2019-05-09T05:28:58.186Z,91.50
2019-05-09T05:31:35.214Z,91.80
2019-05-09T05:34:11.249Z,91.40
2019-05-09T05:36:59.290Z,91.70
2019-05-09T05:39:29.541Z,91.40
2019-05-09T05:41:58.709Z,91.40
2019-05-09T05:44:28.305Z,90.90
2019-05-09T05:47:01.010Z,90.80
2019-05-09T05:49:29.376Z,90.80
2019-05-09T05:51:58.222Z,90.90
2019-05-09T05:54:27.713Z,90.90
2019-05-09T05:56:57.874Z,90.80
2019-05-09T05:59:28.673Z,90.80
2019-05-09T06:01:58.297Z,90.70
2019-05-09T06:04:27.711Z,90.40
2019-05-09T06:06:58.862Z,90.10
2019-05-09T06:09:28.158Z,90.30
2019-05-09T06:11:57.897Z,90.40
2019-05-09T06:14:28.554Z,89.60
2019-05-09T06:16:58.763Z,89.60
2019-05-09T06:19:28.596Z,88.30
2019-05-09T06:21:58.303Z,88.10
2019-05-09T06:24:28.195Z,87.20
2019-05-09T06:26:58.586Z,88.00
2019-05-09T06:29:28.586Z,88.20
2019-05-09T06:31:58.581Z,88.40
2019-05-09T06:34:29.213Z,88.10
2019-05-09T06:36:58.733Z,88.10
2019-05-09T06:39:28.630Z,87.90
2019-05-09T06:41:57.644Z,87.60
2019-05-09T06:44:37.452Z,85.90
2019-05-09T06:47:18.494Z,86.30
2019-05-09T06:49:54.798Z,85.90
2019-05-09T06:52:23.604Z,86.20
2019-05-09T06:54:52.445Z,86.40
2019-05-09T06:57:21.174Z,86.60
2019-05-09T06:59:50.340Z,85.70
2019-05-09T07:02:20.732Z,85.50
2019-05-09T07:04:51.109Z,85.10
2019-05-09T07:07:24.209Z,84.90
2019-05-09T07:09:54.468Z,85.00
2019-05-09T07:12:23.218Z,85.80
2019-05-09T07:14:52.003Z,85.30
2019-05-09T07:17:20.679Z,85.70
2019-05-09T07:19:49.628Z,84.80
2019-05-09T07:22:22.474Z,85.10
2019-05-09T07:25:11.087Z,84.20
2019-05-09T07:27:42.741Z,84.50
2019-05-09T07:30:17.980Z,83.40
2019-05-09T07:33:23.213Z,82.50
2019-05-09T07:35:51.966Z,81.10
2019-05-09T07:38:31.722Z,82.70
2019-05-09T07:41:08.610Z,81.20
2019-05-09T07:43:38.458Z,80.60
2019-05-09T07:46:11.650Z,80.20
2019-05-09T07:48:42.114Z,80.60
2019-05-09T07:51:11.091Z,79.20
2019-05-09T07:53:39.704Z,78.40
2019-05-09T07:56:09.632Z,78.40
2019-05-09T07:58:38.308Z,78.50
2019-05-09T08:01:08.628Z,78.20
2019-05-09T08:03:38.467Z,78.50
2019-05-09T08:06:08.679Z,78.60
2019-05-09T08:08:38.701Z,78.50
2019-05-09T08:11:08.832Z,79.50
2019-05-09T08:13:39.475Z,77.30
2019-05-09T08:16:14.378Z,77.40
2019-05-09T08:18:38.976Z,77.20
2019-05-09T08:21:08.513Z,77.60
2019-05-09T08:23:38.125Z,78.70
2019-05-09T08:26:08.822Z,79.10
2019-05-09T08:28:38.869Z,78.40
2019-05-09T08:31:08.435Z,78.30
2019-05-09T08:33:38.108Z,78.20
2019-05-09T08:36:08.723Z,78.50
2019-05-09T08:38:38.924Z,79.10
2019-05-09T08:41:09.397Z,79.90
2019-05-09T08:43:40.121Z,80.30
2019-05-09T08:46:09.577Z,80.80
2019-05-09T08:48:38.965Z,81.70
2019-05-09T08:51:12.481Z,81.90
2019-05-09T08:53:42.280Z,82.00
2019-05-09T08:56:13.030Z,82.80
2019-05-09T08:58:42.528Z,82.90
2019-05-09T09:01:12.144Z,84.10
2019-05-09T09:03:41.440Z,84.80
2019-05-09T09:06:10.231Z,85.70
2019-05-09T09:08:39.124Z,86.30
2019-05-09T09:11:08.678Z,87.50
2019-05-09T09:13:38.727Z,88.00
2019-05-09T09:16:15.725Z,88.40
2019-05-09T09:18:38.811Z,88.00
2019-05-09T09:21:08.184Z,90.00
2019-05-09T09:23:44.094Z,90.20
2019-05-09T09:26:08.162Z,90.10
2019-05-09T09:28:40.010Z,90.20
2019-05-09T09:31:08.932Z,91.10
2019-05-09T09:33:37.815Z,91.00
2019-05-09T09:36:08.743Z,91.00
2019-05-09T09:38:37.678Z,91.60
2019-05-09T09:41:07.769Z,91.50
2019-05-09T09:43:58.275Z,91.80
2019-05-09T09:46:28.580Z,91.50
2019-05-09T09:48:58.661Z,92.00
2019-05-09T09:51:28.387Z,92.00
2019-05-09T09:53:58.255Z,92.10
2019-05-09T09:56:28.158Z,92.40
2019-05-09T09:59:05.139Z,92.80
2019-05-09T10:01:41.383Z,92.70
2019-05-09T10:04:29.448Z,92.70
2019-05-09T10:06:59.499Z,92.00
2019-05-09T10:09:28.184Z,92.40
2019-05-09T10:12:00.562Z,92.60
2019-05-09T10:14:28.988Z,92.50
2019-05-09T10:17:14.423Z,92.20
2019-05-09T10:20:10.093Z,92.10
2019-05-09T10:22:46.880Z,92.30
2019-05-09T10:25:10.585Z,92.30
2019-05-09T10:27:39.604Z,92.40
2019-05-09T10:30:09.214Z,92.30
2019-05-09T10:32:38.436Z,92.30
2019-05-09T10:35:08.769Z,92.10
2019-05-09T10:37:39.155Z,91.90
2019-05-09T10:40:08.031Z,91.70
2019-05-09T10:42:41.414Z,91.80
2019-05-09T10:45:11.754Z,92.00
2019-05-09T10:47:42.110Z,91.50
2019-05-09T10:50:11.778Z,91.30
2019-05-09T10:52:40.378Z,91.10
2019-05-09T10:55:09.342Z,91.20
2019-05-09T10:57:51.266Z,91.20
2019-05-09T11:00:18.406Z,91.10
2019-05-09T11:02:48.425Z,91.30
2019-05-09T11:05:18.450Z,90.60
2019-05-09T11:07:49.366Z,90.40
2019-05-09T11:10:27.791Z,90.20
2019-05-09T11:12:51.004Z,89.20
2019-05-09T11:15:21.426Z,89.20
2019-05-09T11:17:50.008Z,89.20
2019-05-09T11:20:19.351Z,89.10
2019-05-09T11:22:48.353Z,88.00
2019-05-09T11:25:17.441Z,88.10
2019-05-09T11:27:48.527Z,87.60
2019-05-09T11:30:17.635Z,87.90
2019-05-09T11:32:48.078Z,88.40
2019-05-09T11:35:17.741Z,88.10
2019-05-09T11:37:48.040Z,87.90
2019-05-09T11:40:17.091Z,87.80
2019-05-09T11:42:48.103Z,87.50
2019-05-09T11:45:17.921Z,87.80
2019-05-09T11:47:46.878Z,87.90
2019-05-09T11:50:22.509Z,88.40
2019-05-09T11:52:49.086Z,87.80
2019-05-09T11:55:29.943Z,88.30
2019-05-09T11:57:49.261Z,88.80
2019-05-09T12:00:18.479Z,87.90
2019-05-09T12:02:49.855Z,87.80
2019-05-09T12:05:19.176Z,87.60
2019-05-09T12:07:48.026Z,87.70
2019-05-09T12:10:19.670Z,87.10
2019-05-09T12:12:48.443Z,86.90
2019-05-09T12:15:17.344Z,87.10
2019-05-09T12:17:57.121Z,86.40
2019-05-09T12:20:18.289Z,87.00
2019-05-09T12:22:48.448Z,87.10
2019-05-09T12:25:18.339Z,88.30
2019-05-09T12:27:48.689Z,89.60
2019-05-09T12:30:18.855Z,89.90
2019-05-09T12:32:48.672Z,90.20
2019-05-09T12:35:19.101Z,90.70
2019-05-09T12:37:49.219Z,91.20
2019-05-09T12:40:20.063Z,91.40
2019-05-09T12:42:50.148Z,91.70
2019-05-09T12:45:20.005Z,92.20
2019-05-09T12:47:48.710Z,92.50
2019-05-09T12:50:18.689Z,92.50
2019-05-09T12:52:50.071Z,91.90
2019-05-09T12:55:18.749Z,91.70
2019-05-09T12:58:09.802Z,92.00
2019-05-09T13:00:38.851Z,92.00
2019-05-09T13:03:08.639Z,92.20
2019-05-09T13:05:57.587Z,92.20
2019-05-09T13:08:27.858Z,92.20
2019-05-09T13:10:58.340Z,92.00
2019-05-09T13:13:30.262Z,91.70
2019-05-09T13:16:02.031Z,91.70
2019-05-09T13:18:48.973Z,91.70
2019-05-09T13:21:19.935Z,91.00
2019-05-09T13:23:52.265Z,91.20
2019-05-09T13:26:21.447Z,91.60
2019-05-09T13:28:49.983Z,91.80
2019-05-09T13:31:18.768Z,91.50
2019-05-09T13:33:48.761Z,91.50
2019-05-09T13:36:18.930Z,91.00
2019-05-09T13:39:00.312Z,90.90
2019-05-09T13:41:18.580Z,90.40
2019-05-09T13:43:57.721Z,90.20
2019-05-09T13:46:18.074Z,90.10
2019-05-09T13:49:05.827Z,90.30
2019-05-09T13:51:18.472Z,89.40
2019-05-09T13:53:48.435Z,90.00
2019-05-09T13:56:18.040Z,90.20
2019-05-09T13:58:48.717Z,90.20
2019-05-09T14:01:17.865Z,90.40
2019-05-09T14:03:49.138Z,90.90
2019-05-09T14:06:17.567Z,91.10
2019-05-09T14:08:49.083Z,91.50
2019-05-09T14:11:19.066Z,91.60
2019-05-09T14:13:48.826Z,91.50
2019-05-09T14:16:22.148Z,91.60
2019-05-09T14:18:48.634Z,91.90
2019-05-09T14:21:21.443Z,92.10
2019-05-09T14:24:00.797Z,92.40
2019-05-09T14:26:18.628Z,92.60
2019-05-09T14:28:49.058Z,92.10
2019-05-09T14:31:18.642Z,92.80
2019-05-09T14:33:47.883Z,93.10
2019-05-09T14:36:16.675Z,92.60
2019-05-09T14:38:48.322Z,92.70
2019-05-09T14:41:19.146Z,93.00
2019-05-09T14:43:48.273Z,93.20
2019-05-09T14:46:18.245Z,93.30
2019-05-09T14:48:48.163Z,93.40
2019-05-09T14:51:18.623Z,93.30
2019-05-09T14:53:48.559Z,93.40
2019-05-09T14:56:41.736Z,93.40
2019-05-09T14:59:09.868Z,93.40
2019-05-09T15:01:39.093Z,93.40
2019-05-09T15:04:08.994Z,93.40
2019-05-09T15:06:38.116Z,93.40
2019-05-09T15:09:10.010Z,93.50
2019-05-09T15:11:39.627Z,93.30
2019-05-09T15:14:28.971Z,93.30
2019-05-09T15:16:58.015Z,93.30
2019-05-09T15:19:28.754Z,93.40
2019-05-09T15:22:00.715Z,93.40
2019-05-09T15:24:30.409Z,93.20
2019-05-09T15:26:59.044Z,93.00
2019-05-09T15:29:29.093Z,92.70
2019-05-09T15:32:05.543Z,92.50
2019-05-09T15:34:29.377Z,92.70
2019-05-09T15:36:58.363Z,93.00
2019-05-09T15:39:27.725Z,92.90
2019-05-09T15:41:57.982Z,92.70
2019-05-09T15:44:28.337Z,92.50
2019-05-09T15:47:04.077Z,92.60
2019-05-09T15:49:32.759Z,92.50
2019-05-09T15:52:01.432Z,92.80
2019-05-09T15:54:30.447Z,93.20
2019-05-09T15:57:00.611Z,93.30
2019-05-09T15:59:29.227Z,93.40
2019-05-09T16:01:58.513Z,93.50
2019-05-09T16:04:47.500Z,93.70
2019-05-09T16:07:17.900Z,93.70
2019-05-09T16:09:48.334Z,94.30
2019-05-09T16:12:18.456Z,94.00
2019-05-09T16:14:48.671Z,94.10
2019-05-09T16:17:19.052Z,94.00
2019-05-09T16:19:48.396Z,93.70
2019-05-09T16:22:18.990Z,93.80
2019-05-09T16:24:48.563Z,93.80
2019-05-09T16:27:17.434Z,93.90
2019-05-09T16:29:48.520Z,93.70
2019-05-09T16:32:17.753Z,93.60
2019-05-09T16:34:46.619Z,93.50
2019-05-09T16:37:15.212Z,93.50
2019-05-09T16:39:43.902Z,93.60
2019-05-09T16:42:12.625Z,93.40
2019-05-09T16:44:41.941Z,93.60
2019-05-09T16:47:11.411Z,93.60
2019-05-09T16:49:39.986Z,93.40
2019-05-09T16:52:08.595Z,93.70
2019-05-09T16:54:39.246Z,93.30
2019-05-09T16:57:08.259Z,93.10
2019-05-09T16:59:38.822Z,93.20
2019-05-09T17:02:28.721Z,93.30
2019-05-09T17:04:57.727Z,93.10
2019-05-09T17:07:27.839Z,93.00
2019-05-09T17:09:57.778Z,93.10
2019-05-09T17:12:26.685Z,92.70
2019-05-09T17:14:59.410Z,92.80
2019-05-09T17:17:27.798Z,92.20
2019-05-09T17:19:57.313Z,92.30
2019-05-09T17:22:47.391Z,91.90
2019-05-09T17:25:18.610Z,91.70
2019-05-09T17:27:48.378Z,91.80
2019-05-09T17:30:18.765Z,91.60
2019-05-09T17:32:48.192Z,91.60
2019-05-09T17:35:18.552Z,91.70
2019-05-09T17:37:48.099Z,91.50
2019-05-09T17:40:19.207Z,91.30
2019-05-09T17:42:47.327Z,91.30
2019-05-09T17:45:16.425Z,91.20
2019-05-09T17:47:45.051Z,91.30
2019-05-09T17:50:13.874Z,91.50
2019-05-09T17:52:42.605Z,91.20
2019-05-09T17:55:11.702Z,91.10
2019-05-09T17:57:40.378Z,91.00
2019-05-09T18:00:11.370Z,91.10
2019-05-09T18:02:40.117Z,91.30
2019-05-09T18:05:09.323Z,91.30
2019-05-09T18:07:38.232Z,91.10
2019-05-09T18:10:07.866Z,91.40
2019-05-09T18:12:38.381Z,91.20
2019-05-09T18:15:08.514Z,91.10
2019-05-09T18:17:38.260Z,91.00
2019-05-09T18:20:28.382Z,91.10
2019-05-09T18:22:58.649Z,91.10
2019-05-09T18:25:27.321Z,91.20
2019-05-09T18:27:57.469Z,91.20
2019-05-09T18:30:27.933Z,91.20
2019-05-09T18:33:13.249Z,91.30
2019-05-09T18:35:42.161Z,91.20
2019-05-09T18:38:13.843Z,91.40
2019-05-09T18:40:42.438Z,91.40
2019-05-09T18:43:12.696Z,91.60
2019-05-09T18:45:41.521Z,91.60
2019-05-09T18:48:10.303Z,91.70
2019-05-09T18:50:38.868Z,91.90
2019-05-09T18:53:07.581Z,92.00
2019-05-09T18:55:36.376Z,92.00
2019-05-09T18:58:05.001Z,92.30
2019-05-09T19:00:33.551Z,92.30
2019-05-09T19:03:02.151Z,92.30
2019-05-09T19:05:30.767Z,92.40
2019-05-09T19:07:59.349Z,92.80
2019-05-09T19:10:28.106Z,93.10
2019-05-09T19:12:56.658Z,93.00
2019-05-09T19:15:44.154Z,93.30
2019-05-09T19:18:23.210Z,93.20
2019-05-09T19:21:02.648Z,93.40
2019-05-09T19:23:31.255Z,93.50
2019-05-09T19:26:01.601Z,93.60
2019-05-09T19:28:30.218Z,93.60
2019-05-09T19:30:58.724Z,93.60
2019-05-09T19:33:27.827Z,93.70
2019-05-09T19:35:56.331Z,93.80
2019-05-09T19:38:24.887Z,93.60
2019-05-09T19:40:53.677Z,93.50
2019-05-09T19:43:22.234Z,93.50
2019-05-09T19:45:51.054Z,93.50
2019-05-09T19:48:19.666Z,93.60
2019-05-09T19:50:48.315Z,93.60
2019-05-09T19:53:16.939Z,93.40
2019-05-09T19:55:45.586Z,93.40
2019-05-09T19:58:14.317Z,93.30
2019-05-09T20:00:43.075Z,93.20
2019-05-09T20:03:11.724Z,93.40
2019-05-09T20:05:40.640Z,93.40
2019-05-09T20:08:09.206Z,93.20
2019-05-09T20:10:48.098Z,93.30
2019-05-09T20:13:27.485Z,93.50
2019-05-09T20:15:56.134Z,93.50
2019-05-09T20:18:24.710Z,93.10
2019-05-09T20:20:53.523Z,92.80
2019-05-09T20:23:22.357Z,92.90
2019-05-09T20:25:52.469Z,92.50
2019-05-09T20:28:21.258Z,92.60
2019-05-09T20:30:49.903Z,92.00
2019-05-09T20:33:37.814Z,92.00
2019-05-09T20:36:06.648Z,92.00
2019-05-09T20:38:35.775Z,91.80
2019-05-09T20:41:04.709Z,91.70
2019-05-09T20:43:33.789Z,91.60
2019-05-09T20:46:02.755Z,91.80
2019-05-09T20:48:31.646Z,92.00
2019-05-09T20:51:00.469Z,91.80
2019-05-09T20:53:30.758Z,91.80
2019-05-09T20:55:59.652Z,91.90
2019-05-09T20:58:28.446Z,91.90
2019-05-09T21:00:57.407Z,92.00
2019-05-09T21:03:26.128Z,92.00
2019-05-09T21:05:55.284Z,92.00
2019-05-09T21:08:24.092Z,92.00
2019-05-09T21:10:52.879Z,92.00
2019-05-09T21:13:21.745Z,92.00
2019-05-09T21:15:55.988Z,92.00
2019-05-09T21:18:24.843Z,92.10
2019-05-09T21:20:53.722Z,92.20
2019-05-09T21:23:24.639Z,92.30
2019-05-09T21:25:53.313Z,92.20
2019-05-09T21:28:23.285Z,92.20
2019-05-09T21:30:52.163Z,92.30
2019-05-09T21:33:20.987Z,92.50
2019-05-09T21:35:49.590Z,92.50
2019-05-09T21:38:18.157Z,92.50
2019-05-09T21:40:47.135Z,92.60
2019-05-09T21:43:15.864Z,92.60
2019-05-09T21:45:44.437Z,92.70
2019-05-09T21:48:13.065Z,92.80
2019-05-09T21:50:41.695Z,92.80
2019-05-09T21:53:10.288Z,92.90
2019-05-09T21:55:39.079Z,93.00
2019-05-09T21:58:07.667Z,93.10
2019-05-09T22:00:39.224Z,93.00
2019-05-09T22:03:08.747Z,93.10
2019-05-09T22:05:37.960Z,93.20
2019-05-09T22:08:06.685Z,93.20
2019-05-09T22:10:35.335Z,93.20
2019-05-09T22:13:07.562Z,93.20
2019-05-09T22:15:36.203Z,93.40
2019-05-09T22:18:05.422Z,93.40
2019-05-09T22:20:33.982Z,93.50
2019-05-09T22:23:05.934Z,93.60
2019-05-09T22:25:32.938Z,93.80
2019-05-09T22:28:01.570Z,94.10
2019-05-09T22:30:30.252Z,94.40
2019-05-09T22:32:59.722Z,94.70
2019-05-09T22:35:28.403Z,95.00
2019-05-09T22:37:57.301Z,95.00
2019-05-09T22:40:25.927Z,95.20
2019-05-09T22:42:54.670Z,95.30
2019-05-09T22:45:23.519Z,95.30
2019-05-09T22:47:52.122Z,95.20
2019-05-09T22:50:21.517Z,95.30
2019-05-09T22:52:50.211Z,95.20
2019-05-09T22:55:18.867Z,95.20
2019-05-09T22:57:47.551Z,95.00
2019-05-09T23:00:17.071Z,95.10
2019-05-09T23:02:45.802Z,95.00
2019-05-09T23:05:15.038Z,95.00
2019-05-09T23:07:43.587Z,95.30
2019-05-09T23:10:12.246Z,95.30
2019-05-09T23:12:40.856Z,95.20
2019-05-09T23:15:11.419Z,95.30
2019-05-09T23:17:40.020Z,95.10
2019-05-09T23:20:10.930Z,95.00
2019-05-09T23:22:39.734Z,94.70
2019-05-09T23:25:08.558Z,94.60
2019-05-09T23:27:37.211Z,94.50
2019-05-09T23:30:12.492Z,94.50
2019-05-09T23:32:45.626Z,94.50
2019-05-09T23:35:14.330Z,94.50
2019-05-09T23:37:43.386Z,94.50
2019-05-09T23:40:12.114Z,94.60
2019-05-09T23:42:40.693Z,94.80
2019-05-09T23:45:11.223Z,94.60
2019-05-09T23:47:39.845Z,94.40
2019-05-09T23:50:08.907Z,94.30
2019-05-09T23:52:37.600Z,94.20
2019-05-09T23:55:23.974Z,94.30
2019-05-09T23:58:10.093Z,94.40
